Fort Sevcenko, Kazakhstan
Current Conditions -  °F | °C
As of 9:00 AM on Sunday 26 Oct 2014 (Local Time) from UATE Reporting Station
Broken Clouds Broken Clouds  
Wind Chill: 19°   Ceiling: 3300
Heat Index: 28°   Visibility: 6mi
Dew Point: 21°   Wind: 11mph
Humidity: 74%   Direction: 60°ENE
Pressure: 30.56"   Gusts: NA
Location:  44.55°N, 50.25°E
Report Text: UATE 260500Z 06005MPS 9999 BKN033 M02/M06 Q1035 R12/0///70NOSIG RMK QFE774/1033
Loading
Personal Weather Stations






























Interactive Weather Map
Tropical Storm Tracking
New forecast layout! Learn more

10-Day Weather Forecast

Advertisements
Track Severe Weather on mobile